Time;durP1;ratioP1;P1;durP2;ratioP2;P2;SDS_P1;SDS_P2;PMS_P1;PMS_P2;Temp;Humidity;BMP_temperature;BMP_pressure;BME280_temperature;BME280_humidity;BME280_pressure;Samples;Min_cycle;Max_cycle;Signal;HPM_P1;HPM_P2
2023/08/10 00:01:33;;;;;;;;;;;;;;;15.03;72.99;101439.84;4202447;28;20011;-69
2023/08/10 00:03:35;;;;;;;;;;;;;;;14.99;72.89;101441.25;4203407;28;20056;-69
2023/08/10 00:05:37;;;;;;;;;;;;;;;14.96;73.38;101443.31;4202798;28;20035;-69
2023/08/10 00:07:39;;;;;;;;;;;;;;;14.97;73.48;101446.88;4184313;28;20011;-69
2023/08/10 00:09:41;;;;;;;;;;;;;;;14.96;73.29;101437.88;4205779;28;20398;-69
2023/08/10 00:11:42;;;;;;;;;;;;;;;14.98;73.42;101450.44;4206971;28;20481;-69
2023/08/10 00:13:43;;;;;;;;;;;;;;;14.98;73.27;101448.56;4205841;28;20030;-69
2023/08/10 00:15:46;;;;;;;;;;;;;;;15.00;73.51;101451.09;4207148;28;20409;-69
2023/08/10 00:17:49;;;;;;;;;;;;;;;15.02;73.39;101460.75;4206911;28;20466;-70
2023/08/10 00:19:51;;;;;;;;;;;;;;;15.02;73.03;101458.03;4206763;28;20023;-69
2023/08/10 00:21:53;;;;;;;;;;;;;;;14.99;72.99;101452.97;4206431;28;20405;-69
2023/08/10 00:23:56;;;;;;;;;;;;;;;14.97;72.91;101455.06;4207241;28;20001;-69
2023/08/10 00:25:58;;;;;;;;;;;;;;;14.97;73.37;101455.06;4206284;28;20011;-69
2023/08/10 00:28:00;;;;;;;;;;;;;;;14.94;73.34;101463.59;4205580;28;20011;-69
2023/08/10 00:30:03;;;;;;;;;;;;;;;14.92;73.42;101457.47;4204957;28;20374;-69
2023/08/10 00:32:05;;;;;;;;;;;;;;;14.89;73.35;101464.16;4207988;28;20030;-69
2023/08/10 00:34:08;;;;;;;;;;;;;;;14.87;73.58;101459.91;4204213;28;20023;-69
2023/08/10 00:36:11;;;;;;;;;;;;;;;14.87;73.76;101457.19;4205542;28;19963;-69
2023/08/10 00:38:12;;;;;;;;;;;;;;;14.87;73.50;101462.63;4206682;28;20015;-69
2023/08/10 00:40:14;;;;;;;;;;;;;;;14.88;73.71;101459.72;4187859;28;20441;-69
2023/08/10 00:42:16;;;;;;;;;;;;;;;14.89;73.60;101457.84;4205229;28;20020;-69
2023/08/10 00:44:18;;;;;;;;;;;;;;;14.90;73.49;101459.53;4188676;28;20023;-69
2023/08/10 00:46:20;;;;;;;;;;;;;;;14.88;73.39;101456.19;4205697;28;20035;-70
2023/08/10 00:48:22;;;;;;;;;;;;;;;14.88;73.51;101461.63;4187214;28;20012;-69
2023/08/10 00:50:26;;;;;;;;;;;;;;;14.87;73.77;101459.91;4188459;28;19964;-69
2023/08/10 00:52:28;;;;;;;;;;;;;;;14.87;73.74;101457.19;4206573;28;20011;-69
2023/08/10 00:54:30;;;;;;;;;;;;;;;14.85;73.52;101462.00;4205088;28;20365;-68
2023/08/10 00:56:32;;;;;;;;;;;;;;;14.84;73.76;101458.41;4206270;28;20469;-69
2023/08/10 00:58:34;;;;;;;;;;;;;;;14.83;73.80;101458.59;4205894;28;19978;-69
2023/08/10 01:00:35;;;;;;;;;;;;;;;14.81;73.66;101461.53;4187181;28;20454;-70
2023/08/10 01:02:37;;;;;;;;;;;;;;;14.80;73.62;101469.88;4188080;28;20015;-70
2023/08/10 01:04:38;;;;;;;;;;;;;;;14.77;73.68;101462.94;4204845;28;20014;-69
2023/08/10 01:06:44;;;;;;;;;;;;;;;14.76;74.01;101466.66;4206651;28;20015;-69
2023/08/10 01:08:48;;;;;;;;;;;;;;;14.77;74.05;101462.94;4169569;28;20033;-69
2023/08/10 01:10:52;;;;;;;;;;;;;;;14.78;74.11;101461.91;4205695;28;20027;-69
2023/08/10 01:12:58;;;;;;;;;;;;;;;14.80;73.98;101454.41;4205428;28;20019;-69
2023/08/10 01:15:03;;;;;;;;;;;;;;;14.82;74.04;101459.66;4206164;28;20039;-69
2023/08/10 01:17:06;;;;;;;;;;;;;;;14.84;73.78;101457.56;4206161;28;19959;-69
2023/08/10 01:19:08;;;;;;;;;;;;;;;14.83;73.74;101464.91;4205320;28;20011;-68
2023/08/10 01:21:14;;;;;;;;;;;;;;;14.84;73.66;101466.56;4204030;28;20023;-68
2023/08/10 01:23:20;;;;;;;;;;;;;;;14.83;74.04;101461.31;4205928;28;20014;-68
2023/08/10 01:25:23;;;;;;;;;;;;;;;14.84;74.12;101468.44;4186786;28;20592;-68
2023/08/10 01:27:24;;;;;;;;;;;;;;;14.83;73.96;101467.63;4203337;28;20027;-68
2023/08/10 01:29:26;;;;;;;;;;;;;;;14.82;73.67;101460.47;4188131;28;19929;-68
2023/08/10 01:31:29;;;;;;;;;;;;;;;14.82;74.24;101467.81;4205461;28;20019;-69
2023/08/10 01:33:31;;;;;;;;;;;;;;;14.83;74.26;101470.34;4203685;28;20019;-68
2023/08/10 01:35:33;;;;;;;;;;;;;;;14.84;74.05;101466.56;4205051;28;20559;-68
2023/08/10 01:37:35;;;;;;;;;;;;;;;14.86;74.00;101475.41;4186345;28;20438;-68
2023/08/10 01:39:37;;;;;;;;;;;;;;;14.86;74.00;101485.41;4206063;28;20023;-68
2023/08/10 01:41:42;;;;;;;;;;;;;;;14.86;74.28;101483.56;4205388;28;20393;-68
2023/08/10 01:43:44;;;;;;;;;;;;;;;14.87;74.25;101479.78;4204854;28;20036;-70
2023/08/10 01:45:47;;;;;;;;;;;;;;;14.88;73.98;101477.94;4206005;28;20022;-70
2023/08/10 01:47:50;;;;;;;;;;;;;;;14.87;73.90;101473.50;4205324;28;20345;-70
2023/08/10 01:49:53;;;;;;;;;;;;;;;14.85;74.01;101464.72;4204139;28;20031;-70
2023/08/10 01:51:55;;;;;;;;;;;;;;;14.86;74.05;101469.09;4205241;28;20003;-70
2023/08/10 01:53:56;;;;;;;;;;;;;;;14.86;74.21;101469.09;4204554;28;20357;-70
2023/08/10 01:55:58;;;;;;;;;;;;;;;14.86;74.01;101469.97;4200908;28;20035;-69
2023/08/10 01:58:00;;;;;;;;;;;;;;;14.86;74.09;101472.69;4186834;28;19928;-70
2023/08/10 02:00:06;;;;;;;;;;;;;;;14.86;74.15;101466.38;4203815;28;20028;-70
2023/08/10 02:02:17;;;;;;;;;;;;;;;14.84;73.84;101474.72;4206112;28;20027;-70
2023/08/10 02:04:19;;;;;;;;;;;;;;;14.84;73.91;101466.56;4170459;28;20011;-70
2023/08/10 02:06:21;;;;;;;;;;;;;;;14.84;73.96;101471.16;4186688;28;20019;-70
2023/08/10 02:08:23;;;;;;;;;;;;;;;14.84;74.01;101474.72;4205077;28;20376;-70
2023/08/10 02:10:26;;;;;;;;;;;;;;;14.84;73.94;101468.44;4205728;28;20367;-68
2023/08/10 02:12:28;;;;;;;;;;;;;;;14.83;74.03;101464.03;4203779;28;19932;-68
2023/08/10 02:14:32;;;;;;;;;;;;;;;14.80;73.90;101461.72;4203219;28;20022;-69
2023/08/10 02:16:34;;;;;;;;;;;;;;;14.76;73.96;101463.94;4203352;28;20027;-69
2023/08/10 02:18:37;;;;;;;;;;;;;;;14.73;73.88;101473.34;4203262;28;19928;-69
2023/08/10 02:20:39;;;;;;;;;;;;;;;14.72;74.44;101484.41;4204342;28;20007;-69
2023/08/10 02:22:42;;;;;;;;;;;;;;;14.73;74.31;101477.91;4187507;28;19963;-69
2023/08/10 02:24:44;;;;;;;;;;;;;;;14.74;74.47;101477.72;4167636;28;19975;-69
2023/08/10 02:26:46;;;;;;;;;;;;;;;14.73;74.25;101476.06;4184837;28;20036;-69
2023/08/10 02:28:48;;;;;;;;;;;;;;;14.72;74.12;101476.25;4203349;28;20055;-69
2023/08/10 02:30:52;;;;;;;;;;;;;;;14.69;74.08;101472.00;4204001;28;19951;-69
2023/08/10 02:32:54;;;;;;;;;;;;;;;14.68;74.03;101477.63;4201376;28;20051;-69
2023/08/10 02:34:57;;;;;;;;;;;;;;;14.65;74.41;101476.13;4186011;28;20023;-69
2023/08/10 02:36:59;;;;;;;;;;;;;;;14.63;74.46;101475.47;4204404;28;20019;-69
2023/08/10 02:39:05;;;;;;;;;;;;;;;14.62;74.22;101478.38;4204683;28;19924;-69
2023/08/10 02:41:07;;;;;;;;;;;;;;;14.60;74.39;101476.69;4204421;28;20018;-69
2023/08/10 02:43:09;;;;;;;;;;;;;;;14.60;74.25;101471.25;4185528;28;20019;-69
2023/08/10 02:45:12;;;;;;;;;;;;;;;14.58;74.34;101472.44;4185010;28;20015;-69
2023/08/10 02:47:17;;;;;;;;;;;;;;;14.55;74.24;101472.81;4170677;28;20012;-70
2023/08/10 02:49:19;;;;;;;;;;;;;;;14.53;74.17;101474.84;4203586;28;20027;-69
2023/08/10 02:51:20;;;;;;;;;;;;;;;14.51;74.47;101468.78;4203801;28;20011;-69
2023/08/10 02:53:22;;;;;;;;;;;;;;;14.49;74.26;101476.28;4204356;28;20019;-69
2023/08/10 02:55:24;;;;;;;;;;;;;;;14.49;74.55;101473.56;4204293;28;20019;-69
2023/08/10 02:57:25;;;;;;;;;;;;;;;14.47;74.68;101473.75;4186381;28;20028;-69
2023/08/10 02:59:27;;;;;;;;;;;;;;;14.47;74.61;101471.03;4204122;28;19928;-69
2023/08/10 03:01:29;;;;;;;;;;;;;;;14.46;74.48;101465.78;4204744;28;20412;-69
2023/08/10 03:03:33;;;;;;;;;;;;;;;14.45;74.39;101473.09;4185918;28;20022;-69
2023/08/10 03:05:35;;;;;;;;;;;;;;;14.46;74.69;101476.63;4185088;28;20379;-69
2023/08/10 03:07:37;;;;;;;;;;;;;;;14.44;74.56;101478.72;4203538;28;20371;-69
2023/08/10 03:09:41;;;;;;;;;;;;;;;14.42;74.40;101485.16;4184990;28;20027;-69
2023/08/10 03:11:44;;;;;;;;;;;;;;;14.40;74.35;101484.50;4184955;28;20016;-69
2023/08/10 03:13:46;;;;;;;;;;;;;;;14.38;74.27;101494.69;4186031;28;20028;-69
2023/08/10 03:15:49;;;;;;;;;;;;;;;14.36;74.38;101495.94;4203094;28;20027;-69
2023/08/10 03:17:52;;;;;;;;;;;;;;;14.34;74.57;101496.13;4202023;28;20023;-69
2023/08/10 03:19:55;;;;;;;;;;;;;;;14.32;74.69;101498.16;4185833;28;19932;-69
2023/08/10 03:21:58;;;;;;;;;;;;;;;14.30;74.69;101500.22;4202611;28;20403;-69
2023/08/10 03:24:00;;;;;;;;;;;;;;;14.31;74.56;101495.63;4184934;28;20035;-69
2023/08/10 03:26:02;;;;;;;;;;;;;;;14.29;74.66;101490.38;4185593;28;20015;-69
2023/08/10 03:28:05;;;;;;;;;;;;;;;14.28;74.44;101496.84;4201484;28;20011;-69
2023/08/10 03:30:07;;;;;;;;;;;;;;;14.28;74.48;101498.69;4185710;28;20043;-69
2023/08/10 03:32:11;;;;;;;;;;;;;;;14.24;74.69;101498.22;4201869;28;20007;-69
2023/08/10 03:34:13;;;;;;;;;;;;;;;14.24;74.74;101503.66;4186033;28;20011;-69
2023/08/10 03:36:19;;;;;;;;;;;;;;;14.23;74.73;101501.97;4202863;28;20043;-69
2023/08/10 03:38:21;;;;;;;;;;;;;;;14.21;74.57;101501.31;4184921;28;20015;-69
2023/08/10 03:40:23;;;;;;;;;;;;;;;14.20;74.81;101505.91;4185006;28;19998;-69
2023/08/10 03:42:25;;;;;;;;;;;;;;;14.19;74.68;101511.53;4185500;28;20028;-69
2023/08/10 03:44:27;;;;;;;;;;;;;;;14.17;74.97;101509.00;4162673;28;20465;-69
2023/08/10 03:46:29;;;;;;;;;;;;;;;14.16;74.92;101506.44;4168944;28;20031;-69
2023/08/10 03:48:31;;;;;;;;;;;;;;;14.17;75.00;101510.84;4203513;28;20036;-69
2023/08/10 03:50:33;;;;;;;;;;;;;;;14.14;74.83;101508.50;4184330;28;20011;-69
2023/08/10 03:52:36;;;;;;;;;;;;;;;14.13;74.92;101512.25;4203774;28;20055;-69
2023/08/10 03:54:38;;;;;;;;;;;;;;;14.12;75.09;101510.56;4185020;28;20023;-69
2023/08/10 03:56:40;;;;;;;;;;;;;;;14.12;74.75;101507.84;4185809;28;20031;-69
2023/08/10 03:58:43;;;;;;;;;;;;;;;14.11;74.95;101508.88;4184219;28;20063;-69
2023/08/10 04:00:47;;;;;;;;;;;;;;;14.11;74.76;101506.16;4203620;28;19960;-69
2023/08/10 04:02:50;;;;;;;;;;;;;;;14.11;75.19;101508.88;4185948;28;20405;-69
2023/08/10 04:04:55;;;;;;;;;;;;;;;14.10;75.04;101508.00;4184037;28;20027;-69
2023/08/10 04:06:57;;;;;;;;;;;;;;;14.11;75.08;101508.88;4184313;28;20486;-69
2023/08/10 04:09:01;;;;;;;;;;;;;;;14.11;75.19;101512.44;4202503;28;20043;-69
2023/08/10 04:11:03;;;;;;;;;;;;;;;14.11;75.32;101520.56;4165568;28;20031;-69
2023/08/10 04:13:05;;;;;;;;;;;;;;;14.12;75.07;101516.84;4202553;28;20016;-69
2023/08/10 04:15:07;;;;;;;;;;;;;;;14.12;75.23;101516.84;4202588;28;20020;-69
2023/08/10 04:17:09;;;;;;;;;;;;;;;14.13;75.14;101520.41;4203645;28;20372;-69
2023/08/10 04:19:11;;;;;;;;;;;;;;;14.13;74.91;101520.41;4184903;28;20015;-69
2023/08/10 04:21:13;;;;;;;;;;;;;;;14.09;74.88;101530.78;4168299;28;19924;-69
2023/08/10 04:23:15;;;;;;;;;;;;;;;14.08;75.11;101526.38;4184914;28;19963;-69
2023/08/10 04:25:18;;;;;;;;;;;;;;;14.05;75.40;101524.84;4203259;28;20031;-70
2023/08/10 04:27:20;;;;;;;;;;;;;;;14.05;75.13;101537.59;4202592;28;20015;-69
2023/08/10 04:29:26;;;;;;;;;;;;;;;14.05;75.47;101527.56;4202263;28;20363;-69
2023/08/10 04:31:28;;;;;;;;;;;;;;;14.07;75.34;101530.09;4203186;28;19928;-69
2023/08/10 04:33:31;;;;;;;;;;;;;;;14.07;75.29;101527.38;4202305;28;20015;-69
2023/08/10 04:35:33;;;;;;;;;;;;;;;14.08;75.74;101526.38;4203133;28;20015;-69
2023/08/10 04:37:35;;;;;;;;;;;;;;;14.10;75.59;101528.91;4183729;28;20549;-69
2023/08/10 04:39:37;;;;;;;;;;;;;;;14.12;75.30;101525.00;4202180;28;19991;-69
2023/08/10 04:41:41;;;;;;;;;;;;;;;14.12;75.39;101521.41;4203439;28;20305;-69
2023/08/10 04:43:43;;;;;;;;;;;;;;;14.12;75.39;101532.28;4203589;28;20011;-69
2023/08/10 04:45:45;;;;;;;;;;;;;;;14.10;75.50;101531.63;4202167;28;20023;-69
2023/08/10 04:47:47;;;;;;;;;;;;;;;14.08;75.52;101530.97;4203266;28;20023;-69
2023/08/10 04:49:49;;;;;;;;;;;;;;;14.07;75.96;101535.53;4202086;28;20653;-69
2023/08/10 04:51:51;;;;;;;;;;;;;;;14.06;75.96;101540.13;4202038;28;20023;-69
2023/08/10 04:53:53;;;;;;;;;;;;;;;14.06;76.04;101539.31;4201586;28;20046;-69
2023/08/10 04:55:55;;;;;;;;;;;;;;;14.07;75.94;101540.97;4202154;28;20035;-69
2023/08/10 04:57:59;;;;;;;;;;;;;;;14.10;75.93;101545.22;4204478;28;20011;-69
2023/08/10 05:00:02;;;;;;;;;;;;;;;14.12;76.00;101545.84;4204248;28;20437;-69
2023/08/10 05:02:05;;;;;;;;;;;;;;;14.12;76.21;101543.16;4205068;28;19975;-69
2023/08/10 05:04:07;;;;;;;;;;;;;;;14.12;76.01;101551.28;4204538;28;20023;-69
2023/08/10 05:06:09;;;;;;;;;;;;;;;14.12;76.28;101551.28;4205466;28;20019;-69
2023/08/10 05:08:11;;;;;;;;;;;;;;;14.11;76.57;101553.19;4205664;28;20015;-69
2023/08/10 05:10:13;;;;;;;;;;;;;;;14.10;76.65;101551.47;4203956;28;20023;-69
2023/08/10 05:12:15;;;;;;;;;;;;;;;14.11;76.70;101552.34;4205253;28;20015;-69
2023/08/10 05:14:19;;;;;;;;;;;;;;;14.12;76.64;101554.88;4204450;28;20027;-69
2023/08/10 05:16:21;;;;;;;;;;;;;;;14.14;76.70;101555.53;4205797;28;20019;-69
2023/08/10 05:18:23;;;;;;;;;;;;;;;14.18;76.57;101556.00;4204489;28;20047;-69
2023/08/10 05:20:25;;;;;;;;;;;;;;;14.18;76.37;101556.00;4205942;28;20019;-69
2023/08/10 05:22:26;;;;;;;;;;;;;;;14.21;76.48;101558.38;4205213;28;20313;-69
2023/08/10 05:24:28;;;;;;;;;;;;;;;14.23;76.34;101568.03;4204687;28;20650;-69
2023/08/10 05:26:30;;;;;;;;;;;;;;;14.23;76.34;101565.31;4204788;28;19924;-69
2023/08/10 05:28:31;;;;;;;;;;;;;;;14.25;76.42;101567.84;4205563;28;19972;-69
2023/08/10 05:30:34;;;;;;;;;;;;;;;14.27;76.32;101573.09;4187559;28;20019;-69
2023/08/10 05:32:39;;;;;;;;;;;;;;;14.29;76.35;101579.19;4204257;28;20024;-69
2023/08/10 05:34:41;;;;;;;;;;;;;;;14.32;76.27;101578.84;4203574;28;20024;-69
2023/08/10 05:36:43;;;;;;;;;;;;;;;14.34;76.14;101572.19;4205170;28;19962;-69
2023/08/10 05:38:45;;;;;;;;;;;;;;;14.37;76.12;101568.25;4205026;28;20099;-69
2023/08/10 05:40:47;;;;;;;;;;;;;;;14.42;75.90;101566.69;4204936;28;20010;-69
2023/08/10 05:42:49;;;;;;;;;;;;;;;14.46;75.80;101572.59;4187299;28;20024;-69
2023/08/10 05:44:51;;;;;;;;;;;;;;;14.49;75.55;101569.53;4203156;28;20020;-69
2023/08/10 05:46:57;;;;;;;;;;;;;;;14.52;75.66;101566.44;4204347;28;20569;-69
2023/08/10 05:48:59;;;;;;;;;;;;;;;14.58;75.47;101576.59;4204643;28;20359;-69
2023/08/10 05:51:01;;;;;;;;;;;;;;;14.62;75.76;101571.66;4203822;28;20312;-69
2023/08/10 05:53:03;;;;;;;;;;;;;;;14.64;75.44;101575.03;4204925;28;20027;-69
2023/08/10 05:55:05;;;;;;;;;;;;;;;14.67;75.29;101577.41;4203021;28;20019;-69
2023/08/10 05:57:07;;;;;;;;;;;;;;;14.70;75.33;101585.19;4203652;28;20023;-69
2023/08/10 05:59:09;;;;;;;;;;;;;;;14.73;75.24;101579.38;4204068;28;20026;-69
2023/08/10 06:01:11;;;;;;;;;;;;;;;14.76;75.39;101587.19;4203712;28;20377;-70
2023/08/10 06:03:15;;;;;;;;;;;;;;;14.79;75.21;101585.94;4201698;28;20368;-69
2023/08/10 06:05:18;;;;;;;;;;;;;;;14.83;74.79;101583.69;4202550;28;20434;-69
2023/08/10 06:07:20;;;;;;;;;;;;;;;14.85;74.64;101582.50;4203237;28;20616;-69
2023/08/10 06:09:22;;;;;;;;;;;;;;;14.90;74.56;101593.66;4204179;28;20018;-71
2023/08/10 06:11:24;;;;;;;;;;;;;;;14.94;74.30;101594.97;4205312;28;20035;-71
2023/08/10 06:13:26;;;;;;;;;;;;;;;14.98;74.03;101595.44;4204021;28;20030;-70
2023/08/10 06:15:31;;;;;;;;;;;;;;;15.00;73.98;101590.69;4203887;28;20275;-69
2023/08/10 06:17:33;;;;;;;;;;;;;;;15.04;73.80;101596.59;4204252;28;20019;-69
2023/08/10 06:19:36;;;;;;;;;;;;;;;15.07;73.69;101590.78;4203709;28;20023;-69
2023/08/10 06:21:38;;;;;;;;;;;;;;;15.10;73.31;101596.69;4200245;28;20354;-69
2023/08/10 06:23:40;;;;;;;;;;;;;;;15.13;73.39;101595.47;4201497;28;19933;-69
2023/08/10 06:25:42;;;;;;;;;;;;;;;15.17;73.13;101596.78;4204177;28;20007;-69
2023/08/10 06:27:44;;;;;;;;;;;;;;;15.20;73.28;101596.41;4204094;28;20011;-69
2023/08/10 06:29:46;;;;;;;;;;;;;;;15.24;73.22;101595.00;4203411;28;20019;-69
2023/08/10 06:31:49;;;;;;;;;;;;;;;15.28;72.96;101595.47;4203333;28;20401;-69
2023/08/10 06:33:51;;;;;;;;;;;;;;;15.31;72.97;101597.81;4204617;28;20024;-68
2023/08/10 06:35:54;;;;;;;;;;;;;;;15.34;72.88;101600.16;4204374;28;20015;-69
2023/08/10 06:37:56;;;;;;;;;;;;;;;15.39;72.54;101605.03;4204209;28;20050;-69
2023/08/10 06:40:00;;;;;;;;;;;;;;;15.40;72.43;101604.84;4204096;28;20095;-69
2023/08/10 06:42:03;;;;;;;;;;;;;;;15.44;72.21;101606.19;4203500;28;20007;-68
2023/08/10 06:44:06;;;;;;;;;;;;;;;15.47;71.99;101597.63;4186078;28;19952;-69
2023/08/10 06:46:09;;;;;;;;;;;;;;;15.49;71.87;101603.72;4203744;28;20019;-69
2023/08/10 06:48:10;;;;;;;;;;;;;;;15.53;71.34;101600.63;4201336;28;20347;-69
2023/08/10 06:50:13;;;;;;;;;;;;;;;15.54;71.24;101602.34;4200120;28;20063;-69
2023/08/10 06:52:16;;;;;;;;;;;;;;;15.54;71.02;101600.44;4201553;28;20490;-69
2023/08/10 06:54:18;;;;;;;;;;;;;;;15.56;71.00;101601.09;4202648;28;20023;-69
2023/08/10 06:56:20;;;;;;;;;;;;;;;15.59;70.77;101599.88;4185590;28;20619;-70
2023/08/10 06:58:22;;;;;;;;;;;;;;;15.60;70.75;101598.84;4184786;28;20019;-69
2023/08/10 07:00:25;;;;;;;;;;;;;;;15.62;70.77;101607.66;4202829;28;20614;-69
2023/08/10 07:02:26;;;;;;;;;;;;;;;15.62;70.67;101600.34;4204108;28;20011;-68
2023/08/10 07:04:29;;;;;;;;;;;;;;;15.64;70.10;101609.19;4203649;28;20386;-69
2023/08/10 07:06:31;;;;;;;;;;;;;;;15.67;70.20;101607.94;4203242;28;20016;-69
2023/08/10 07:08:34;;;;;;;;;;;;;;;15.70;69.90;101623.06;4203795;28;20007;-68
2023/08/10 07:10:36;;;;;;;;;;;;;;;15.72;69.98;101618.25;4203606;28;20026;-69
2023/08/10 07:12:37;;;;;;;;;;;;;;;15.73;70.00;101617.25;4202804;28;20022;-68
2023/08/10 07:14:39;;;;;;;;;;;;;;;15.76;69.66;101625.88;4202947;28;19935;-68
2023/08/10 07:16:41;;;;;;;;;;;;;;;15.78;69.47;101621.13;4203457;28;20364;-69
2023/08/10 07:18:43;;;;;;;;;;;;;;;15.79;69.30;101621.97;4202878;28;20015;-68
2023/08/10 07:20:45;;;;;;;;;;;;;;;15.84;69.30;101625.78;4185720;28;19929;-68
2023/08/10 07:22:48;;;;;;;;;;;;;;;15.87;69.34;101630.03;4202199;28;20434;-68
2023/08/10 07:24:51;;;;;;;;;;;;;;;15.90;69.12;101624.19;4203663;28;19933;-68
2023/08/10 07:26:53;;;;;;;;;;;;;;;15.93;69.00;101626.53;4203874;28;20003;-68
2023/08/10 07:28:55;;;;;;;;;;;;;;;15.94;68.79;101628.22;4203859;28;20030;-68
2023/08/10 07:31:00;;;;;;;;;;;;;;;15.98;68.70;101625.97;4202962;28;20027;-68
2023/08/10 07:33:02;;;;;;;;;;;;;;;16.00;68.44;101637.50;4203395;28;20019;-68
2023/08/10 07:35:04;;;;;;;;;;;;;;;16.02;68.50;101633.56;4202271;28;20019;-68
2023/08/10 07:37:06;;;;;;;;;;;;;;;16.05;68.40;101635.06;4203658;28;20397;-68
2023/08/10 07:39:08;;;;;;;;;;;;;;;16.08;68.16;101633.81;4202529;28;20011;-69
2023/08/10 07:41:12;;;;;;;;;;;;;;;16.09;68.14;101639.09;4202808;28;19928;-69
2023/08/10 07:43:14;;;;;;;;;;;;;;;16.12;67.93;101637.88;4203396;28;20019;-69
2023/08/10 07:45:16;;;;;;;;;;;;;;;16.13;67.79;101634.94;4204082;28;19934;-69
2023/08/10 07:47:18;;;;;;;;;;;;;;;16.16;67.77;101639.16;4203128;28;20023;-68
2023/08/10 07:49:20;;;;;;;;;;;;;;;16.17;67.52;101636.22;4185467;28;20020;-69
2023/08/10 07:51:22;;;;;;;;;;;;;;;16.19;67.47;101638.78;4202857;28;20477;-68
2023/08/10 07:53:26;;;;;;;;;;;;;;;16.23;67.42;101639.25;4185217;28;20023;-68
2023/08/10 07:55:28;;;;;;;;;;;;;;;16.25;67.10;101642.63;4203006;28;20022;-68
2023/08/10 07:57:31;;;;;;;;;;;;;;;16.26;67.08;101636.97;4201809;28;20018;-68
2023/08/10 07:59:34;;;;;;;;;;;;;;;16.30;66.96;101651.06;4202248;28;20019;-68
2023/08/10 08:01:39;;;;;;;;;;;;;;;16.31;66.78;101645.41;4202523;28;20355;-68
2023/08/10 08:03:41;;;;;;;;;;;;;;;16.34;66.73;101641.47;4202764;28;20011;-69
2023/08/10 08:05:43;;;;;;;;;;;;;;;16.35;66.41;101640.44;4185449;28;19935;-69
2023/08/10 08:07:45;;;;;;;;;;;;;;;16.37;66.34;101644.63;4203504;28;20007;-68
2023/08/10 08:09:47;;;;;;;;;;;;;;;16.40;66.47;101646.97;4201363;28;20450;-69
2023/08/10 08:11:49;;;;;;;;;;;;;;;16.43;66.22;101639.47;4203280;28;20032;-69
2023/08/10 08:13:53;;;;;;;;;;;;;;;16.45;66.22;101649.13;4202848;28;20032;-69
2023/08/10 08:15:57;;;;;;;;;;;;;;;16.47;65.98;101646.19;4203022;28;20033;-68
2023/08/10 08:18:17;;;;;;;;;;;;;;;16.49;66.02;101650.44;4202771;28;20365;-69
2023/08/10 08:20:19;;;;;;;;;;;;;;;16.51;65.95;101653.81;4203106;28;20030;-69
2023/08/10 08:22:21;;;;;;;;;;;;;;;16.54;65.80;101652.59;4203147;28;20016;-68
2023/08/10 08:24:23;;;;;;;;;;;;;;;16.55;65.57;101652.38;4202975;28;20019;-68
2023/08/10 08:26:24;;;;;;;;;;;;;;;16.58;65.67;101648.41;4203535;28;20410;-68
2023/08/10 08:28:26;;;;;;;;;;;;;;;16.60;65.69;101650.94;4202629;28;19963;-69
2023/08/10 08:30:30;;;;;;;;;;;;;;;16.62;65.51;101646.16;4202085;28;20023;-68
2023/08/10 08:32:32;;;;;;;;;;;;;;;16.62;65.41;101647.00;4206094;28;20457;-68
2023/08/10 08:34:35;;;;;;;;;;;;;;;16.64;65.06;101644.91;4205831;28;20015;-68
2023/08/10 08:36:37;;;;;;;;;;;;;;;16.65;65.28;101646.59;4206574;28;20378;-68
2023/08/10 08:38:40;;;;;;;;;;;;;;;16.67;65.14;101647.25;4205690;28;20562;-69
2023/08/10 08:40:41;;;;;;;;;;;;;;;16.68;64.75;101657.13;4205215;28;20035;-69
2023/08/10 08:42:43;;;;;;;;;;;;;;;16.70;64.93;101644.13;4206325;28;20011;-69
2023/08/10 08:44:45;;;;;;;;;;;;;;;16.72;65.14;101652.09;4205837;28;20022;-69
2023/08/10 08:46:49;;;;;;;;;;;;;;;16.72;65.10;101647.53;4206115;28;19932;-70
2023/08/10 08:48:51;;;;;;;;;;;;;;;16.73;64.94;101649.19;4204677;28;20023;-69
2023/08/10 08:50:53;;;;;;;;;;;;;;;16.74;64.94;101642.72;4206240;28;20023;-69
2023/08/10 08:52:54;;;;;;;;;;;;;;;16.74;64.62;101650.88;4206747;28;20019;-69
2023/08/10 08:54:56;;;;;;;;;;;;;;;16.76;64.32;101648.78;4206394;28;20018;-69
2023/08/10 08:56:58;;;;;;;;;;;;;;;16.79;64.41;101649.47;4205872;28;20071;-69
2023/08/10 08:59:00;;;;;;;;;;;;;;;16.80;64.27;101648.41;4205871;28;20015;-69
2023/08/10 09:01:03;;;;;;;;;;;;;;;16.82;63.95;101651.78;4206060;28;20027;-69
2023/08/10 09:03:06;;;;;;;;;;;;;;;16.82;63.76;101659.97;4205929;28;20029;-68
2023/08/10 09:05:09;;;;;;;;;;;;;;;16.84;63.51;101649.72;4205826;28;20433;-70
2023/08/10 09:07:10;;;;;;;;;;;;;;;16.85;63.42;101652.25;4206037;28;20346;-69
2023/08/10 09:09:12;;;;;;;;;;;;;;;16.86;63.07;101650.38;4205490;28;20043;-69
2023/08/10 09:11:14;;;;;;;;;;;;;;;16.87;63.05;101655.66;4205622;28;20031;-68
2023/08/10 09:13:18;;;;;;;;;;;;;;;16.89;63.09;101650.81;4206291;28;20022;-69
2023/08/10 09:15:21;;;;;;;;;;;;;;;16.91;62.87;101654.22;4205906;28;20007;-69
2023/08/10 09:17:23;;;;;;;;;;;;;;;16.92;62.92;101653.16;4205688;28;20098;-69
2023/08/10 09:19:27;;;;;;;;;;;;;;;16.95;62.93;101642.91;4204402;28;20015;-69
2023/08/10 09:21:31;;;;;;;;;;;;;;;16.95;62.89;101641.03;4205499;28;20007;-69
2023/08/10 09:23:35;;;;;;;;;;;;;;;16.97;62.97;101638.94;4204929;28;20023;-69
2023/08/10 09:25:38;;;;;;;;;;;;;;;16.99;62.94;101633.28;4205066;28;20477;-69
2023/08/10 09:27:39;;;;;;;;;;;;;;;17.01;62.73;101636.66;4203716;28;19924;-69
2023/08/10 09:29:41;;;;;;;;;;;;;;;17.02;62.88;101641.94;4206573;28;19924;-69
2023/08/10 09:31:43;;;;;;;;;;;;;;;17.04;62.72;101652.66;4206317;28;20030;-69
2023/08/10 09:33:45;;;;;;;;;;;;;;;17.05;62.52;101641.53;4203034;28;20015;-69
2023/08/10 09:35:49;;;;;;;;;;;;;;;17.07;62.29;101638.59;4204052;28;20019;-70
2023/08/10 09:37:51;;;;;;;;;;;;;;;17.09;62.19;101642.81;4206355;28;20011;-69
2023/08/10 09:39:54;;;;;;;;;;;;;;;17.10;62.16;101651.84;4204185;28;20031;-69
2023/08/10 09:41:57;;;;;;;;;;;;;;;17.11;62.54;101645.34;4204877;28;20039;-69
2023/08/10 09:43:59;;;;;;;;;;;;;;;17.11;62.16;101642.59;4202752;28;20015;-70
2023/08/10 09:46:05;;;;;;;;;;;;;;;17.14;62.41;101646.84;4205678;28;20450;-69
2023/08/10 09:48:10;;;;;;;;;;;;;;;17.13;62.20;101640.50;4205511;28;19931;-69
2023/08/10 09:50:14;;;;;;;;;;;;;;;17.14;62.16;101642.22;4203237;28;20019;-69
2023/08/10 09:52:17;;;;;;;;;;;;;;;17.15;62.02;101651.22;4204816;28;20023;-69
2023/08/10 09:54:19;;;;;;;;;;;;;;;17.16;62.00;101642.84;4188279;28;20015;-69
2023/08/10 09:56:21;;;;;;;;;;;;;;;17.19;62.01;101649.81;4204504;28;20015;-69
2023/08/10 09:58:22;;;;;;;;;;;;;;;17.19;61.67;101656.09;4204842;28;20038;-69
2023/08/10 10:00:24;;;;;;;;;;;;;;;17.21;61.61;101653.16;4206564;28;20445;-69
2023/08/10 10:02:26;;;;;;;;;;;;;;;17.21;61.66;101648.56;4206058;28;20028;-69
2023/08/10 10:04:28;;;;;;;;;;;;;;;17.22;61.85;101652.13;4188186;28;20026;-69
2023/08/10 10:06:30;;;;;;;;;;;;;;;17.22;61.96;101652.97;4205101;28;20026;-68
2023/08/10 10:08:36;;;;;;;;;;;;;;;17.24;61.75;101647.31;4203580;28;19924;-68
2023/08/10 10:10:38;;;;;;;;;;;;;;;17.25;61.99;101647.13;4204349;28;20438;-69
2023/08/10 10:12:40;;;;;;;;;;;;;;;17.26;61.89;101646.09;4205320;28;20453;-69
2023/08/10 10:14:43;;;;;;;;;;;;;;;17.27;61.82;101647.78;4205265;28;20493;-68
2023/08/10 10:16:45;;;;;;;;;;;;;;;17.28;61.98;101645.88;4206004;28;20450;-68
2023/08/10 10:18:48;;;;;;;;;;;;;;;17.29;61.87;101642.97;4205051;28;20016;-68
2023/08/10 10:20:50;;;;;;;;;;;;;;;17.31;62.00;101639.19;4203866;28;20070;-68
2023/08/10 10:22:52;;;;;;;;;;;;;;;17.33;62.14;101648.00;4204656;28;20044;-68
2023/08/10 10:24:56;;;;;;;;;;;;;;;17.34;61.85;101647.81;4205148;28;20040;-69
2023/08/10 10:26:59;;;;;;;;;;;;;;;17.35;61.99;101641.31;4204985;28;20074;-68
2023/08/10 10:29:07;;;;;;;;;;;;;;;17.36;61.95;101642.16;4203593;28;20437;-69